sensor_id;sensor_type;location;lat;lon;timestamp;temperature;humidity
22008;DHT22;11168;56.976;24.168;2023-10-09T00:02:08;7.40;99.90
22008;DHT22;11168;56.976;24.168;2023-10-09T00:04:39;7.40;99.90
22008;DHT22;11168;56.976;24.168;2023-10-09T00:07:10;7.40;99.90
22008;DHT22;11168;56.976;24.168;2023-10-09T00:09:38;7.30;99.90
22008;DHT22;11168;56.976;24.168;2023-10-09T00:12:19;7.30;99.90
22008;DHT22;11168;56.976;24.168;2023-10-09T00:14:52;7.40;99.90
22008;DHT22;11168;56.976;24.168;2023-10-09T00:17:23;7.50;99.90
22008;DHT22;11168;56.976;24.168;2023-10-09T00:19:51;7.50;99.90
22008;DHT22;11168;56.976;24.168;2023-10-09T00:22:19;7.50;99.90
22008;DHT22;11168;56.976;24.168;2023-10-09T00:24:57;7.50;99.90
22008;DHT22;11168;56.976;24.168;2023-10-09T00:27:41;7.60;99.90
22008;DHT22;11168;56.976;24.168;2023-10-09T00:30:11;7.60;99.90
22008;DHT22;11168;56.976;24.168;2023-10-09T00:32:46;7.70;99.90
22008;DHT22;11168;56.976;24.168;2023-10-09T00:35:26;7.60;99.90
22008;DHT22;11168;56.976;24.168;2023-10-09T00:38:04;7.60;99.90
22008;DHT22;11168;56.976;24.168;2023-10-09T00:40:47;7.60;99.90
22008;DHT22;11168;56.976;24.168;2023-10-09T00:43:23;7.60;99.90
22008;DHT22;11168;56.976;24.168;2023-10-09T00:45:58;7.70;99.90
22008;DHT22;11168;56.976;24.168;2023-10-09T00:48:56;7.70;99.90
22008;DHT22;11168;56.976;24.168;2023-10-09T00:51:25;7.70;99.90
22008;DHT22;11168;56.976;24.168;2023-10-09T00:53:56;7.80;99.90
22008;DHT22;11168;56.976;24.168;2023-10-09T00:56:34;7.80;99.90
22008;DHT22;11168;56.976;24.168;2023-10-09T00:59:06;7.70;99.90
22008;DHT22;11168;56.976;24.168;2023-10-09T01:01:52;7.50;99.90
22008;DHT22;11168;56.976;24.168;2023-10-09T01:04:32;7.30;99.90
22008;DHT22;11168;56.976;24.168;2023-10-09T01:07:04;7.10;99.90
22008;DHT22;11168;56.976;24.168;2023-10-09T01:09:37;6.90;99.90
22008;DHT22;11168;56.976;24.168;2023-10-09T01:12:10;6.80;99.90
22008;DHT22;11168;56.976;24.168;2023-10-09T01:14:44;6.70;99.90
22008;DHT22;11168;56.976;24.168;2023-10-09T01:17:11;6.70;99.90
22008;DHT22;11168;56.976;24.168;2023-10-09T01:19:45;6.60;99.90
22008;DHT22;11168;56.976;24.168;2023-10-09T01:22:14;6.50;99.90
22008;DHT22;11168;56.976;24.168;2023-10-09T01:24:42;6.50;99.90
22008;DHT22;11168;56.976;24.168;2023-10-09T01:27:11;6.40;99.90
22008;DHT22;11168;56.976;24.168;2023-10-09T01:29:43;6.40;99.90
22008;DHT22;11168;56.976;24.168;2023-10-09T01:32:11;6.40;99.90
22008;DHT22;11168;56.976;24.168;2023-10-09T01:34:46;6.50;99.90
22008;DHT22;11168;56.976;24.168;2023-10-09T01:37:19;6.50;99.90
22008;DHT22;11168;56.976;24.168;2023-10-09T01:39:57;6.50;99.90
22008;DHT22;11168;56.976;24.168;2023-10-09T01:42:47;6.50;99.90
22008;DHT22;11168;56.976;24.168;2023-10-09T01:45:14;6.50;99.90
22008;DHT22;11168;56.976;24.168;2023-10-09T01:47:47;6.40;99.90
22008;DHT22;11168;56.976;24.168;2023-10-09T01:50:24;6.40;99.90
22008;DHT22;11168;56.976;24.168;2023-10-09T01:52:58;6.40;99.90
22008;DHT22;11168;56.976;24.168;2023-10-09T01:55:31;6.40;99.90
22008;DHT22;11168;56.976;24.168;2023-10-09T01:58:07;6.30;99.90
22008;DHT22;11168;56.976;24.168;2023-10-09T02:00:51;6.20;99.90
22008;DHT22;11168;56.976;24.168;2023-10-09T02:03:23;6.20;99.90
22008;DHT22;11168;56.976;24.168;2023-10-09T02:05:52;6.10;99.90
22008;DHT22;11168;56.976;24.168;2023-10-09T02:08:44;6.00;99.90
22008;DHT22;11168;56.976;24.168;2023-10-09T02:11:16;6.00;99.90
22008;DHT22;11168;56.976;24.168;2023-10-09T02:13:51;6.00;99.90
22008;DHT22;11168;56.976;24.168;2023-10-09T02:16:28;6.00;99.90
22008;DHT22;11168;56.976;24.168;2023-10-09T02:18:55;6.00;99.90
22008;DHT22;11168;56.976;24.168;2023-10-09T02:21:23;6.00;99.90
22008;DHT22;11168;56.976;24.168;2023-10-09T02:24:02;6.00;99.90
22008;DHT22;11168;56.976;24.168;2023-10-09T02:26:34;6.00;99.90
22008;DHT22;11168;56.976;24.168;2023-10-09T02:29:28;5.90;99.90
22008;DHT22;11168;56.976;24.168;2023-10-09T02:31:54;5.80;99.90
22008;DHT22;11168;56.976;24.168;2023-10-09T02:34:28;5.80;99.90
22008;DHT22;11168;56.976;24.168;2023-10-09T02:36:56;5.80;99.90
22008;DHT22;11168;56.976;24.168;2023-10-09T02:39:32;5.80;99.90
22008;DHT22;11168;56.976;24.168;2023-10-09T02:42:10;5.80;99.90
22008;DHT22;11168;56.976;24.168;2023-10-09T02:44:40;5.90;99.90
22008;DHT22;11168;56.976;24.168;2023-10-09T02:47:13;5.80;99.90
22008;DHT22;11168;56.976;24.168;2023-10-09T02:50:00;5.70;99.90
22008;DHT22;11168;56.976;24.168;2023-10-09T02:52:33;5.70;99.90
22008;DHT22;11168;56.976;24.168;2023-10-09T02:55:07;5.70;99.90
22008;DHT22;11168;56.976;24.168;2023-10-09T02:57:40;5.70;99.90
22008;DHT22;11168;56.976;24.168;2023-10-09T03:00:08;5.70;99.90
22008;DHT22;11168;56.976;24.168;2023-10-09T03:02:36;5.70;99.90
22008;DHT22;11168;56.976;24.168;2023-10-09T03:05:07;5.80;99.90
22008;DHT22;11168;56.976;24.168;2023-10-09T03:07:39;5.80;99.90
22008;DHT22;11168;56.976;24.168;2023-10-09T03:10:07;5.70;99.90
22008;DHT22;11168;56.976;24.168;2023-10-09T03:12:38;5.60;99.90
22008;DHT22;11168;56.976;24.168;2023-10-09T03:15:06;5.50;99.90
22008;DHT22;11168;56.976;24.168;2023-10-09T03:17:35;5.50;99.90
22008;DHT22;11168;56.976;24.168;2023-10-09T03:20:06;5.50;99.90
22008;DHT22;11168;56.976;24.168;2023-10-09T03:22:40;5.50;99.90
22008;DHT22;11168;56.976;24.168;2023-10-09T03:25:07;5.50;99.90
22008;DHT22;11168;56.976;24.168;2023-10-09T03:27:41;5.50;99.90
22008;DHT22;11168;56.976;24.168;2023-10-09T03:30:19;5.40;99.90
22008;DHT22;11168;56.976;24.168;2023-10-09T03:32:55;5.40;99.90
22008;DHT22;11168;56.976;24.168;2023-10-09T03:35:23;5.60;99.90
22008;DHT22;11168;56.976;24.168;2023-10-09T03:37:55;5.60;99.90
22008;DHT22;11168;56.976;24.168;2023-10-09T03:40:27;5.60;99.90
22008;DHT22;11168;56.976;24.168;2023-10-09T03:42:54;5.60;99.90
22008;DHT22;11168;56.976;24.168;2023-10-09T03:45:21;5.60;99.90
22008;DHT22;11168;56.976;24.168;2023-10-09T03:48:02;5.50;99.90
22008;DHT22;11168;56.976;24.168;2023-10-09T03:50:38;5.40;99.90
22008;DHT22;11168;56.976;24.168;2023-10-09T03:53:05;5.40;99.90
22008;DHT22;11168;56.976;24.168;2023-10-09T03:55:36;5.30;99.90
22008;DHT22;11168;56.976;24.168;2023-10-09T03:58:06;5.20;99.90
22008;DHT22;11168;56.976;24.168;2023-10-09T04:00:33;5.20;99.90
22008;DHT22;11168;56.976;24.168;2023-10-09T04:03:12;5.10;99.90
22008;DHT22;11168;56.976;24.168;2023-10-09T04:05:42;5.10;99.90
22008;DHT22;11168;56.976;24.168;2023-10-09T04:08:11;5.10;99.90
22008;DHT22;11168;56.976;24.168;2023-10-09T04:10:47;5.10;99.90
22008;DHT22;11168;56.976;24.168;2023-10-09T04:13:24;5.00;99.90
22008;DHT22;11168;56.976;24.168;2023-10-09T04:16:03;5.00;99.90
22008;DHT22;11168;56.976;24.168;2023-10-09T04:18:50;5.00;99.90
22008;DHT22;11168;56.976;24.168;2023-10-09T04:21:19;5.00;99.90
22008;DHT22;11168;56.976;24.168;2023-10-09T04:23:46;5.00;99.90
22008;DHT22;11168;56.976;24.168;2023-10-09T04:26:26;5.00;99.90
22008;DHT22;11168;56.976;24.168;2023-10-09T04:28:56;4.90;99.90
22008;DHT22;11168;56.976;24.168;2023-10-09T04:31:22;4.90;99.90
22008;DHT22;11168;56.976;24.168;2023-10-09T04:33:59;5.00;99.90
22008;DHT22;11168;56.976;24.168;2023-10-09T04:36:45;5.00;99.90
22008;DHT22;11168;56.976;24.168;2023-10-09T04:39:38;5.00;99.90
22008;DHT22;11168;56.976;24.168;2023-10-09T04:42:14;5.00;99.90
22008;DHT22;11168;56.976;24.168;2023-10-09T04:45:06;4.90;99.90
22008;DHT22;11168;56.976;24.168;2023-10-09T04:47:35;5.00;99.90
22008;DHT22;11168;56.976;24.168;2023-10-09T04:50:06;5.10;99.90
22008;DHT22;11168;56.976;24.168;2023-10-09T04:52:38;5.20;99.90
22008;DHT22;11168;56.976;24.168;2023-10-09T04:55:06;5.40;99.90
22008;DHT22;11168;56.976;24.168;2023-10-09T04:57:42;5.50;99.90
22008;DHT22;11168;56.976;24.168;2023-10-09T05:00:13;5.70;99.90
22008;DHT22;11168;56.976;24.168;2023-10-09T05:02:50;5.80;99.90
22008;DHT22;11168;56.976;24.168;2023-10-09T05:05:25;6.00;99.90
22008;DHT22;11168;56.976;24.168;2023-10-09T05:08:17;6.20;99.90
22008;DHT22;11168;56.976;24.168;2023-10-09T05:11:02;6.40;99.90
22008;DHT22;11168;56.976;24.168;2023-10-09T05:13:35;6.50;99.90
22008;DHT22;11168;56.976;24.168;2023-10-09T05:16:16;6.40;99.90
22008;DHT22;11168;56.976;24.168;2023-10-09T05:18:54;6.40;99.90
22008;DHT22;11168;56.976;24.168;2023-10-09T05:21:32;6.30;99.90
22008;DHT22;11168;56.976;24.168;2023-10-09T05:24:01;6.20;99.90
22008;DHT22;11168;56.976;24.168;2023-10-09T05:26:42;6.10;99.90
22008;DHT22;11168;56.976;24.168;2023-10-09T05:34:33;6.00;99.90
22008;DHT22;11168;56.976;24.168;2023-10-09T05:37:18;6.00;99.90
22008;DHT22;11168;56.976;24.168;2023-10-09T05:40:05;6.00;99.90
22008;DHT22;11168;56.976;24.168;2023-10-09T05:42:46;6.00;99.90
22008;DHT22;11168;56.976;24.168;2023-10-09T05:45:25;6.00;99.90
22008;DHT22;11168;56.976;24.168;2023-10-09T05:48:11;6.00;99.90
22008;DHT22;11168;56.976;24.168;2023-10-09T05:50:44;6.00;99.90
22008;DHT22;11168;56.976;24.168;2023-10-09T05:53:20;6.10;99.90
22008;DHT22;11168;56.976;24.168;2023-10-09T05:56:13;6.10;99.90
22008;DHT22;11168;56.976;24.168;2023-10-09T05:58:59;6.10;99.90
22008;DHT22;11168;56.976;24.168;2023-10-09T06:01:44;6.10;99.90
22008;DHT22;11168;56.976;24.168;2023-10-09T06:04:18;6.20;99.90
22008;DHT22;11168;56.976;24.168;2023-10-09T06:06:47;6.20;99.90
22008;DHT22;11168;56.976;24.168;2023-10-09T06:09:23;6.30;99.90
22008;DHT22;11168;56.976;24.168;2023-10-09T06:12:10;6.30;99.90
22008;DHT22;11168;56.976;24.168;2023-10-09T06:14:57;6.30;99.90
22008;DHT22;11168;56.976;24.168;2023-10-09T06:17:42;6.40;99.90
22008;DHT22;11168;56.976;24.168;2023-10-09T06:20:18;6.50;99.90
22008;DHT22;11168;56.976;24.168;2023-10-09T06:23:03;6.60;99.90
22008;DHT22;11168;56.976;24.168;2023-10-09T06:25:45;6.80;99.90
22008;DHT22;11168;56.976;24.168;2023-10-09T06:28:18;6.80;99.90
22008;DHT22;11168;56.976;24.168;2023-10-09T06:30:59;6.90;99.90
22008;DHT22;11168;56.976;24.168;2023-10-09T06:33:46;6.90;99.90
22008;DHT22;11168;56.976;24.168;2023-10-09T06:36:42;6.90;99.90
22008;DHT22;11168;56.976;24.168;2023-10-09T06:39:20;7.00;99.90
22008;DHT22;11168;56.976;24.168;2023-10-09T06:42:06;7.00;99.90
22008;DHT22;11168;56.976;24.168;2023-10-09T06:44:56;7.10;99.90
22008;DHT22;11168;56.976;24.168;2023-10-09T06:47:23;7.20;99.90
22008;DHT22;11168;56.976;24.168;2023-10-09T06:49:51;7.30;99.90
22008;DHT22;11168;56.976;24.168;2023-10-09T06:52:36;7.40;99.90
22008;DHT22;11168;56.976;24.168;2023-10-09T06:55:22;7.50;99.90
22008;DHT22;11168;56.976;24.168;2023-10-09T06:58:02;7.50;99.90
22008;DHT22;11168;56.976;24.168;2023-10-09T07:00:39;7.50;99.90
22008;DHT22;11168;56.976;24.168;2023-10-09T07:03:25;7.50;99.90
22008;DHT22;11168;56.976;24.168;2023-10-09T07:06:06;7.50;99.90
22008;DHT22;11168;56.976;24.168;2023-10-09T07:08:37;7.60;99.90
22008;DHT22;11168;56.976;24.168;2023-10-09T07:11:04;7.70;99.90
22008;DHT22;11168;56.976;24.168;2023-10-09T07:17:04;7.90;99.90
22008;DHT22;11168;56.976;24.168;2023-10-09T07:19:43;8.00;99.90
22008;DHT22;11168;56.976;24.168;2023-10-09T07:22:11;8.30;99.90
22008;DHT22;11168;56.976;24.168;2023-10-09T07:24:54;8.70;99.90
22008;DHT22;11168;56.976;24.168;2023-10-09T07:27:25;9.00;99.90
22008;DHT22;11168;56.976;24.168;2023-10-09T07:30:16;9.40;99.90
22008;DHT22;11168;56.976;24.168;2023-10-09T07:35:36;9.40;99.90
22008;DHT22;11168;56.976;24.168;2023-10-09T07:40:47;9.00;99.90
22008;DHT22;11168;56.976;24.168;2023-10-09T07:43:29;8.80;99.90
22008;DHT22;11168;56.976;24.168;2023-10-09T07:46:02;8.30;99.90
22008;DHT22;11168;56.976;24.168;2023-10-09T07:49:03;7.80;99.90
22008;DHT22;11168;56.976;24.168;2023-10-09T07:51:37;7.40;99.90
22008;DHT22;11168;56.976;24.168;2023-10-09T07:54:04;7.20;99.90
22008;DHT22;11168;56.976;24.168;2023-10-09T07:56:39;7.20;99.90
22008;DHT22;11168;56.976;24.168;2023-10-09T07:59:20;7.50;99.90
22008;DHT22;11168;56.976;24.168;2023-10-09T08:01:50;8.00;99.90
22008;DHT22;11168;56.976;24.168;2023-10-09T08:04:29;7.90;99.90
22008;DHT22;11168;56.976;24.168;2023-10-09T08:07:16;7.80;99.90
22008;DHT22;11168;56.976;24.168;2023-10-09T08:10:08;7.60;99.90
22008;DHT22;11168;56.976;24.168;2023-10-09T08:12:44;7.40;99.90
22008;DHT22;11168;56.976;24.168;2023-10-09T08:15:32;7.10;99.90
22008;DHT22;11168;56.976;24.168;2023-10-09T08:18:18;6.60;99.90
22008;DHT22;11168;56.976;24.168;2023-10-09T08:20:55;6.10;99.90
22008;DHT22;11168;56.976;24.168;2023-10-09T08:23:25;5.90;99.90
22008;DHT22;11168;56.976;24.168;2023-10-09T08:26:16;5.80;99.90
22008;DHT22;11168;56.976;24.168;2023-10-09T08:28:56;5.90;99.90
22008;DHT22;11168;56.976;24.168;2023-10-09T08:31:42;5.90;99.90
22008;DHT22;11168;56.976;24.168;2023-10-09T08:34:13;6.10;99.90
22008;DHT22;11168;56.976;24.168;2023-10-09T08:36:56;6.30;99.90
22008;DHT22;11168;56.976;24.168;2023-10-09T08:39:23;6.70;99.90
22008;DHT22;11168;56.976;24.168;2023-10-09T08:41:55;7.00;99.90
22008;DHT22;11168;56.976;24.168;2023-10-09T08:44:25;7.20;99.90
22008;DHT22;11168;56.976;24.168;2023-10-09T08:47:00;7.40;99.90
22008;DHT22;11168;56.976;24.168;2023-10-09T08:49:28;7.30;99.90
22008;DHT22;11168;56.976;24.168;2023-10-09T08:52:00;7.10;99.90
22008;DHT22;11168;56.976;24.168;2023-10-09T08:54:30;7.00;99.90
22008;DHT22;11168;56.976;24.168;2023-10-09T08:57:00;6.90;99.90
22008;DHT22;11168;56.976;24.168;2023-10-09T08:59:28;6.80;99.90
22008;DHT22;11168;56.976;24.168;2023-10-09T09:01:55;6.50;99.90
22008;DHT22;11168;56.976;24.168;2023-10-09T09:04:40;6.40;99.90
22008;DHT22;11168;56.976;24.168;2023-10-09T09:07:27;6.20;99.90
22008;DHT22;11168;56.976;24.168;2023-10-09T09:09:59;6.20;99.90
22008;DHT22;11168;56.976;24.168;2023-10-09T09:12:48;6.10;99.90
22008;DHT22;11168;56.976;24.168;2023-10-09T09:15:28;6.20;99.90
22008;DHT22;11168;56.976;24.168;2023-10-09T09:18:08;6.40;99.90
22008;DHT22;11168;56.976;24.168;2023-10-09T09:20:38;6.70;99.90
22008;DHT22;11168;56.976;24.168;2023-10-09T09:23:13;8.50;99.90
22008;DHT22;11168;56.976;24.168;2023-10-09T09:28:12;10.70;99.90
22008;DHT22;11168;56.976;24.168;2023-10-09T09:30:40;11.10;99.90
22008;DHT22;11168;56.976;24.168;2023-10-09T09:33:21;12.60;99.90
22008;DHT22;11168;56.976;24.168;2023-10-09T09:36:00;13.80;99.90
22008;DHT22;11168;56.976;24.168;2023-10-09T09:38:33;14.60;99.90
22008;DHT22;11168;56.976;24.168;2023-10-09T09:41:17;14.70;99.90
22008;DHT22;11168;56.976;24.168;2023-10-09T09:43:55;13.00;99.90
22008;DHT22;11168;56.976;24.168;2023-10-09T09:46:33;11.40;99.90
22008;DHT22;11168;56.976;24.168;2023-10-09T09:49:05;9.80;99.90
22008;DHT22;11168;56.976;24.168;2023-10-09T09:51:48;8.70;99.90
22008;DHT22;11168;56.976;24.168;2023-10-09T09:54:15;7.90;99.90
22008;DHT22;11168;56.976;24.168;2023-10-09T09:56:46;7.20;99.90
22008;DHT22;11168;56.976;24.168;2023-10-09T09:59:19;6.70;99.90
22008;DHT22;11168;56.976;24.168;2023-10-09T10:01:56;6.50;99.90
22008;DHT22;11168;56.976;24.168;2023-10-09T10:04:28;6.40;99.90
22008;DHT22;11168;56.976;24.168;2023-10-09T10:06:56;6.50;99.90
22008;DHT22;11168;56.976;24.168;2023-10-09T10:09:41;6.60;99.90
22008;DHT22;11168;56.976;24.168;2023-10-09T10:12:12;6.60;99.90
22008;DHT22;11168;56.976;24.168;2023-10-09T10:14:54;6.60;99.90
22008;DHT22;11168;56.976;24.168;2023-10-09T10:17:26;6.60;99.90
22008;DHT22;11168;56.976;24.168;2023-10-09T10:20:03;6.40;99.90
22008;DHT22;11168;56.976;24.168;2023-10-09T10:22:46;6.50;99.90
22008;DHT22;11168;56.976;24.168;2023-10-09T10:28:26;6.60;99.90
22008;DHT22;11168;56.976;24.168;2023-10-09T10:31:06;6.60;99.90
22008;DHT22;11168;56.976;24.168;2023-10-09T10:36:22;7.00;99.90
22008;DHT22;11168;56.976;24.168;2023-10-09T10:41:59;7.00;99.90
22008;DHT22;11168;56.976;24.168;2023-10-09T10:44:31;7.10;99.90
22008;DHT22;11168;56.976;24.168;2023-10-09T10:47:09;7.10;99.90
22008;DHT22;11168;56.976;24.168;2023-10-09T10:49:54;7.10;99.90
22008;DHT22;11168;56.976;24.168;2023-10-09T10:52:27;7.20;99.90
22008;DHT22;11168;56.976;24.168;2023-10-09T10:55:13;7.10;99.90
22008;DHT22;11168;56.976;24.168;2023-10-09T10:57:59;6.90;99.90
22008;DHT22;11168;56.976;24.168;2023-10-09T11:00:37;6.80;99.90
22008;DHT22;11168;56.976;24.168;2023-10-09T11:03:23;6.90;99.90
22008;DHT22;11168;56.976;24.168;2023-10-09T11:06:03;6.90;99.90
22008;DHT22;11168;56.976;24.168;2023-10-09T11:08:49;7.10;99.90
22008;DHT22;11168;56.976;24.168;2023-10-09T11:11:23;7.20;99.90
22008;DHT22;11168;56.976;24.168;2023-10-09T11:14:11;7.40;99.90
22008;DHT22;11168;56.976;24.168;2023-10-09T11:17:04;7.50;99.90
22008;DHT22;11168;56.976;24.168;2023-10-09T11:19:51;7.60;99.90
22008;DHT22;11168;56.976;24.168;2023-10-09T11:22:19;7.80;99.90
22008;DHT22;11168;56.976;24.168;2023-10-09T11:24:56;7.80;99.90
22008;DHT22;11168;56.976;24.168;2023-10-09T11:27:45;7.80;99.90
22008;DHT22;11168;56.976;24.168;2023-10-09T11:30:18;7.90;99.90
22008;DHT22;11168;56.976;24.168;2023-10-09T11:33:06;7.70;99.90
22008;DHT22;11168;56.976;24.168;2023-10-09T11:35:41;7.40;99.90
22008;DHT22;11168;56.976;24.168;2023-10-09T11:38:24;7.10;99.90
22008;DHT22;11168;56.976;24.168;2023-10-09T11:40:52;6.90;99.90
22008;DHT22;11168;56.976;24.168;2023-10-09T11:43:20;6.80;99.90
22008;DHT22;11168;56.976;24.168;2023-10-09T11:46:13;6.70;99.90
22008;DHT22;11168;56.976;24.168;2023-10-09T11:49:09;6.70;99.90
22008;DHT22;11168;56.976;24.168;2023-10-09T11:51:50;6.80;99.90
22008;DHT22;11168;56.976;24.168;2023-10-09T11:54:36;6.90;99.90
22008;DHT22;11168;56.976;24.168;2023-10-09T11:57:03;7.00;99.90
22008;DHT22;11168;56.976;24.168;2023-10-09T11:59:31;7.10;99.90
22008;DHT22;11168;56.976;24.168;2023-10-09T12:02:05;7.20;99.90
22008;DHT22;11168;56.976;24.168;2023-10-09T12:04:41;7.10;99.90
22008;DHT22;11168;56.976;24.168;2023-10-09T12:07:12;7.10;99.90
22008;DHT22;11168;56.976;24.168;2023-10-09T12:09:40;7.10;99.90
22008;DHT22;11168;56.976;24.168;2023-10-09T12:12:08;7.00;99.90
22008;DHT22;11168;56.976;24.168;2023-10-09T12:14:36;7.00;99.90
22008;DHT22;11168;56.976;24.168;2023-10-09T12:17:05;7.00;99.90
22008;DHT22;11168;56.976;24.168;2023-10-09T12:19:37;7.10;99.90
22008;DHT22;11168;56.976;24.168;2023-10-09T12:22:06;7.20;99.90
22008;DHT22;11168;56.976;24.168;2023-10-09T12:24:34;7.20;99.90
22008;DHT22;11168;56.976;24.168;2023-10-09T12:27:00;7.20;99.90
22008;DHT22;11168;56.976;24.168;2023-10-09T12:29:27;7.20;99.90
22008;DHT22;11168;56.976;24.168;2023-10-09T12:31:57;7.30;99.90
22008;DHT22;11168;56.976;24.168;2023-10-09T12:34:28;7.30;99.90
22008;DHT22;11168;56.976;24.168;2023-10-09T12:36:57;7.40;99.90
22008;DHT22;11168;56.976;24.168;2023-10-09T12:39:28;7.40;99.90
22008;DHT22;11168;56.976;24.168;2023-10-09T12:42:00;7.40;99.90
22008;DHT22;11168;56.976;24.168;2023-10-09T12:44:38;7.50;99.90
22008;DHT22;11168;56.976;24.168;2023-10-09T12:47:09;7.60;99.90
22008;DHT22;11168;56.976;24.168;2023-10-09T12:49:39;7.70;99.90
22008;DHT22;11168;56.976;24.168;2023-10-09T12:52:09;8.00;99.90
22008;DHT22;11168;56.976;24.168;2023-10-09T12:54:45;8.10;99.90
22008;DHT22;11168;56.976;24.168;2023-10-09T12:57:15;8.20;99.90
22008;DHT22;11168;56.976;24.168;2023-10-09T12:59:42;8.20;99.90
22008;DHT22;11168;56.976;24.168;2023-10-09T13:02:15;8.10;99.90
22008;DHT22;11168;56.976;24.168;2023-10-09T13:04:56;8.20;99.90
22008;DHT22;11168;56.976;24.168;2023-10-09T13:07:24;8.20;99.90
22008;DHT22;11168;56.976;24.168;2023-10-09T13:09:51;8.20;99.90
22008;DHT22;11168;56.976;24.168;2023-10-09T13:12:39;8.20;99.90
22008;DHT22;11168;56.976;24.168;2023-10-09T13:15:09;8.30;99.90
22008;DHT22;11168;56.976;24.168;2023-10-09T13:17:36;8.30;99.90
22008;DHT22;11168;56.976;24.168;2023-10-09T13:20:05;8.40;99.90
22008;DHT22;11168;56.976;24.168;2023-10-09T13:22:40;8.40;99.90
22008;DHT22;11168;56.976;24.168;2023-10-09T13:25:09;8.40;99.90
22008;DHT22;11168;56.976;24.168;2023-10-09T13:27:59;8.40;99.90
22008;DHT22;11168;56.976;24.168;2023-10-09T13:30:31;8.50;99.90
22008;DHT22;11168;56.976;24.168;2023-10-09T13:33:07;8.60;99.90
22008;DHT22;11168;56.976;24.168;2023-10-09T13:35:36;8.60;99.90
22008;DHT22;11168;56.976;24.168;2023-10-09T13:38:15;8.60;99.90
22008;DHT22;11168;56.976;24.168;2023-10-09T13:40:44;8.70;99.90
22008;DHT22;11168;56.976;24.168;2023-10-09T13:43:11;8.80;99.90
22008;DHT22;11168;56.976;24.168;2023-10-09T13:45:44;8.90;99.90
22008;DHT22;11168;56.976;24.168;2023-10-09T13:48:17;8.90;99.90
22008;DHT22;11168;56.976;24.168;2023-10-09T13:50:44;9.00;99.90
22008;DHT22;11168;56.976;24.168;2023-10-09T13:53:11;9.10;99.90
22008;DHT22;11168;56.976;24.168;2023-10-09T13:55:41;9.20;99.90
22008;DHT22;11168;56.976;24.168;2023-10-09T13:58:10;9.30;99.90
22008;DHT22;11168;56.976;24.168;2023-10-09T14:00:48;9.30;99.90
22008;DHT22;11168;56.976;24.168;2023-10-09T14:03:16;9.30;99.90
22008;DHT22;11168;56.976;24.168;2023-10-09T14:05:47;9.40;99.90
22008;DHT22;11168;56.976;24.168;2023-10-09T14:08:24;9.40;99.90
22008;DHT22;11168;56.976;24.168;2023-10-09T14:10:53;9.40;99.90
22008;DHT22;11168;56.976;24.168;2023-10-09T14:13:21;9.50;99.90
22008;DHT22;11168;56.976;24.168;2023-10-09T14:15:57;9.50;99.90
22008;DHT22;11168;56.976;24.168;2023-10-09T14:18:26;9.50;99.90
22008;DHT22;11168;56.976;24.168;2023-10-09T14:21:00;9.50;99.90
22008;DHT22;11168;56.976;24.168;2023-10-09T14:23:32;9.50;99.90
22008;DHT22;11168;56.976;24.168;2023-10-09T14:26:01;9.50;99.90
22008;DHT22;11168;56.976;24.168;2023-10-09T14:28:29;9.50;99.90
22008;DHT22;11168;56.976;24.168;2023-10-09T14:30:56;9.60;99.90
22008;DHT22;11168;56.976;24.168;2023-10-09T14:33:26;9.60;99.90
22008;DHT22;11168;56.976;24.168;2023-10-09T14:35:54;9.50;99.90
22008;DHT22;11168;56.976;24.168;2023-10-09T14:38:21;9.50;99.90
22008;DHT22;11168;56.976;24.168;2023-10-09T14:40:54;9.40;99.90
22008;DHT22;11168;56.976;24.168;2023-10-09T14:43:26;9.40;99.90
22008;DHT22;11168;56.976;24.168;2023-10-09T14:46:00;9.40;99.90
22008;DHT22;11168;56.976;24.168;2023-10-09T14:48:27;9.40;99.90
22008;DHT22;11168;56.976;24.168;2023-10-09T14:50:55;9.30;99.90
22008;DHT22;11168;56.976;24.168;2023-10-09T14:53:32;9.30;99.90
22008;DHT22;11168;56.976;24.168;2023-10-09T14:56:01;9.30;99.90
22008;DHT22;11168;56.976;24.168;2023-10-09T14:58:30;9.30;99.90
22008;DHT22;11168;56.976;24.168;2023-10-09T15:01:08;9.30;99.90
22008;DHT22;11168;56.976;24.168;2023-10-09T15:03:37;9.20;99.90
22008;DHT22;11168;56.976;24.168;2023-10-09T15:06:04;9.30;99.90
22008;DHT22;11168;56.976;24.168;2023-10-09T15:08:37;9.20;99.90
22008;DHT22;11168;56.976;24.168;2023-10-09T15:11:04;9.30;99.90
22008;DHT22;11168;56.976;24.168;2023-10-09T15:13:32;9.20;99.90
22008;DHT22;11168;56.976;24.168;2023-10-09T15:16:01;9.20;99.90
22008;DHT22;11168;56.976;24.168;2023-10-09T15:18:30;9.20;99.90
22008;DHT22;11168;56.976;24.168;2023-10-09T15:21:00;9.20;99.90
22008;DHT22;11168;56.976;24.168;2023-10-09T15:23:27;9.00;99.90
22008;DHT22;11168;56.976;24.168;2023-10-09T15:25:54;8.80;99.90
22008;DHT22;11168;56.976;24.168;2023-10-09T15:28:22;8.60;99.90
22008;DHT22;11168;56.976;24.168;2023-10-09T15:30:50;8.40;99.90
22008;DHT22;11168;56.976;24.168;2023-10-09T15:33:18;8.20;99.90
22008;DHT22;11168;56.976;24.168;2023-10-09T15:35:46;7.90;99.90
22008;DHT22;11168;56.976;24.168;2023-10-09T15:38:19;7.90;99.90
22008;DHT22;11168;56.976;24.168;2023-10-09T15:40:46;7.70;99.90
22008;DHT22;11168;56.976;24.168;2023-10-09T15:43:14;7.70;99.90
22008;DHT22;11168;56.976;24.168;2023-10-09T15:45:43;7.70;99.90
22008;DHT22;11168;56.976;24.168;2023-10-09T15:48:16;7.70;99.90
22008;DHT22;11168;56.976;24.168;2023-10-09T15:50:48;7.70;99.90
22008;DHT22;11168;56.976;24.168;2023-10-09T15:53:17;7.60;99.90
22008;DHT22;11168;56.976;24.168;2023-10-09T15:55:45;7.60;99.90
22008;DHT22;11168;56.976;24.168;2023-10-09T15:58:12;7.50;99.90
22008;DHT22;11168;56.976;24.168;2023-10-09T16:00:39;7.50;99.90
22008;DHT22;11168;56.976;24.168;2023-10-09T16:03:10;7.50;99.90
22008;DHT22;11168;56.976;24.168;2023-10-09T16:05:41;7.50;99.90
22008;DHT22;11168;56.976;24.168;2023-10-09T16:08:08;7.30;99.90
22008;DHT22;11168;56.976;24.168;2023-10-09T16:10:36;7.30;99.90
22008;DHT22;11168;56.976;24.168;2023-10-09T16:13:03;7.20;99.90
22008;DHT22;11168;56.976;24.168;2023-10-09T16:15:31;7.10;99.90
22008;DHT22;11168;56.976;24.168;2023-10-09T16:17:59;7.00;99.90
22008;DHT22;11168;56.976;24.168;2023-10-09T16:20:30;6.90;99.90
22008;DHT22;11168;56.976;24.168;2023-10-09T16:22:58;6.80;99.90
22008;DHT22;11168;56.976;24.168;2023-10-09T16:25:26;6.80;99.90
22008;DHT22;11168;56.976;24.168;2023-10-09T16:27:53;6.80;99.90
22008;DHT22;11168;56.976;24.168;2023-10-09T16:30:22;6.70;99.90
22008;DHT22;11168;56.976;24.168;2023-10-09T16:32:50;6.70;99.90
22008;DHT22;11168;56.976;24.168;2023-10-09T16:35:18;6.60;99.90
22008;DHT22;11168;56.976;24.168;2023-10-09T16:37:49;6.50;99.90
22008;DHT22;11168;56.976;24.168;2023-10-09T16:40:17;6.40;99.90
22008;DHT22;11168;56.976;24.168;2023-10-09T16:42:48;6.40;99.90